sensor_id;sensor_type;location;lat;lon;timestamp;pressure;altitude;pressure_sealevel;temperature;humidity
40946;BME280;55635;50.264;11.918;2023-07-20T00:00:39;95295.63;;;18.79;76.29
40946;BME280;55635;50.264;11.918;2023-07-20T00:03:20;95299.34;;;18.78;76.06
40946;BME280;55635;50.264;11.918;2023-07-20T00:06:05;95305.69;;;18.72;76.07
40946;BME280;55635;50.264;11.918;2023-07-20T00:08:46;95290.72;;;18.59;76.06
40946;BME280;55635;50.264;11.918;2023-07-20T00:11:27;95290.31;;;18.51;76.29
40946;BME280;55635;50.264;11.918;2023-07-20T00:14:08;95300.22;;;18.50;76.54
40946;BME280;55635;50.264;11.918;2023-07-20T00:16:52;95306.84;;;18.31;77.22
40946;BME280;55635;50.264;11.918;2023-07-20T00:19:36;95312.16;;;18.42;76.75
40946;BME280;55635;50.264;11.918;2023-07-20T00:22:17;95312.78;;;18.33;77.11
40946;BME280;55635;50.264;11.918;2023-07-20T00:24:58;95307.13;;;18.46;77.04
40946;BME280;55635;50.264;11.918;2023-07-20T00:27:39;95308.13;;;18.57;77.63
40946;BME280;55635;50.264;11.918;2023-07-20T00:30:20;95294.47;;;18.58;76.71
40946;BME280;55635;50.264;11.918;2023-07-20T00:33:01;95293.03;;;18.39;76.73
40946;BME280;55635;50.264;11.918;2023-07-20T00:35:42;95296.59;;;18.44;76.80
40946;BME280;55635;50.264;11.918;2023-07-20T00:38:22;95297.06;;;18.53;76.17
40946;BME280;55635;50.264;11.918;2023-07-20T00:41:03;95303.06;;;18.43;76.78
40946;BME280;55635;50.264;11.918;2023-07-20T00:43:44;95296.28;;;18.41;77.15
40946;BME280;55635;50.264;11.918;2023-07-20T00:46:26;95301.16;;;18.44;76.63
40946;BME280;55635;50.264;11.918;2023-07-20T00:49:06;95292.13;;;18.33;76.87
40946;BME280;55635;50.264;11.918;2023-07-20T00:51:48;95289.16;;;18.18;77.79
40946;BME280;55635;50.264;11.918;2023-07-20T00:54:30;95278.72;;;18.05;78.55
40946;BME280;55635;50.264;11.918;2023-07-20T00:57:16;95291.59;;;18.20;78.38
40946;BME280;55635;50.264;11.918;2023-07-20T00:59:58;95302.72;;;18.12;78.43
40946;BME280;55635;50.264;11.918;2023-07-20T01:02:39;95303.94;;;17.92;79.54
40946;BME280;55635;50.264;11.918;2023-07-20T01:05:21;95284.31;;;17.52;80.63
40946;BME280;55635;50.264;11.918;2023-07-20T01:11:54;95306.84;;;17.39;83.22
40946;BME280;55635;50.264;11.918;2023-07-20T01:14:40;95300.88;;;17.49;82.97
40946;BME280;55635;50.264;11.918;2023-07-20T01:17:22;95299.09;;;17.78;80.96
40946;BME280;55635;50.264;11.918;2023-07-20T01:20:09;95292.44;;;17.80;80.09
40946;BME280;55635;50.264;11.918;2023-07-20T01:32:43;95291.97;;;17.83;79.19
40946;BME280;55635;50.264;11.918;2023-07-20T01:35:31;95292.72;;;17.67;79.88
40946;BME280;55635;50.264;11.918;2023-07-20T01:38:13;95295.25;;;17.74;79.75
40946;BME280;55635;50.264;11.918;2023-07-20T01:40:55;95288.72;;;17.81;79.31
40946;BME280;55635;50.264;11.918;2023-07-20T01:43:36;95295.59;;;17.77;79.33
40946;BME280;55635;50.264;11.918;2023-07-20T01:46:19;95285.78;;;17.83;78.24
40946;BME280;55635;50.264;11.918;2023-07-20T01:49:00;95301.44;;;17.74;79.36
40946;BME280;55635;50.264;11.918;2023-07-20T01:51:41;95302.69;;;17.83;77.48
40946;BME280;55635;50.264;11.918;2023-07-20T01:54:22;95312.47;;;17.89;77.81
40946;BME280;55635;50.264;11.918;2023-07-20T01:57:03;95309.69;;;17.84;77.27
40946;BME280;55635;50.264;11.918;2023-07-20T01:59:44;95298.94;;;17.96;76.74
40946;BME280;55635;50.264;11.918;2023-07-20T02:02:27;95295.94;;;17.81;78.27
40946;BME280;55635;50.264;11.918;2023-07-20T02:05:10;95292.09;;;17.77;77.89
40946;BME280;55635;50.264;11.918;2023-07-20T02:07:51;95288.53;;;17.60;78.86
40946;BME280;55635;50.264;11.918;2023-07-20T02:10:35;95290.06;;;17.67;79.36
40946;BME280;55635;50.264;11.918;2023-07-20T02:13:16;95273.63;;;17.40;79.75
40946;BME280;55635;50.264;11.918;2023-07-20T02:15:57;95282.47;;;17.41;80.03
40946;BME280;55635;50.264;11.918;2023-07-20T02:18:38;95291.22;;;17.60;79.47
40946;BME280;55635;50.264;11.918;2023-07-20T02:21:19;95268.94;;;17.48;78.71
40946;BME280;55635;50.264;11.918;2023-07-20T02:24:00;95277.25;;;17.58;76.96
40946;BME280;55635;50.264;11.918;2023-07-20T02:26:41;95273.97;;;17.56;76.57
40946;BME280;55635;50.264;11.918;2023-07-20T02:29:23;95284.69;;;17.56;76.87
40946;BME280;55635;50.264;11.918;2023-07-20T02:32:05;95278.94;;;17.52;76.66
40946;BME280;55635;50.264;11.918;2023-07-20T02:34:46;95279.19;;;17.51;76.64
40946;BME280;55635;50.264;11.918;2023-07-20T02:37:27;95280.50;;;17.48;76.67
40946;BME280;55635;50.264;11.918;2023-07-20T02:40:08;95279.53;;;17.54;76.65
40946;BME280;55635;50.264;11.918;2023-07-20T02:42:49;95274.06;;;17.49;77.79
40946;BME280;55635;50.264;11.918;2023-07-20T02:45:30;95280.38;;;17.43;78.39
40946;BME280;55635;50.264;11.918;2023-07-20T02:48:12;95293.06;;;17.48;78.82
40946;BME280;55635;50.264;11.918;2023-07-20T02:50:55;95292.03;;;17.37;79.88
40946;BME280;55635;50.264;11.918;2023-07-20T02:53:36;95296.25;;;17.33;79.81
40946;BME280;55635;50.264;11.918;2023-07-20T02:56:17;95299.25;;;17.25;79.83
40946;BME280;55635;50.264;11.918;2023-07-20T02:58:58;95303.22;;;17.34;78.27
40946;BME280;55635;50.264;11.918;2023-07-20T03:01:39;95311.97;;;17.41;78.16
40946;BME280;55635;50.264;11.918;2023-07-20T03:04:25;95314.19;;;17.21;80.07
40946;BME280;55635;50.264;11.918;2023-07-20T03:07:06;95304.50;;;17.31;80.09
40946;BME280;55635;50.264;11.918;2023-07-20T03:09:48;95299.25;;;17.25;80.99
40946;BME280;55635;50.264;11.918;2023-07-20T03:12:29;95310.44;;;17.45;79.20
40946;BME280;55635;50.264;11.918;2023-07-20T03:15:10;95309.84;;;17.43;78.46
40946;BME280;55635;50.264;11.918;2023-07-20T03:17:51;95309.03;;;17.31;78.77
40946;BME280;55635;50.264;11.918;2023-07-20T03:20:34;95318.25;;;17.35;79.15
40946;BME280;55635;50.264;11.918;2023-07-20T03:23:15;95319.91;;;17.36;79.32
40946;BME280;55635;50.264;11.918;2023-07-20T03:25:57;95316.03;;;17.32;79.39
40946;BME280;55635;50.264;11.918;2023-07-20T03:28:38;95309.97;;;17.25;79.70
40946;BME280;55635;50.264;11.918;2023-07-20T03:31:19;95322.09;;;17.16;79.80
40946;BME280;55635;50.264;11.918;2023-07-20T03:34:00;95333.75;;;17.33;79.96
40946;BME280;55635;50.264;11.918;2023-07-20T03:36:41;95332.84;;;17.39;79.50
40946;BME280;55635;50.264;11.918;2023-07-20T03:39:22;95325.38;;;17.29;79.76
40946;BME280;55635;50.264;11.918;2023-07-20T03:42:04;95337.50;;;17.32;80.32
40946;BME280;55635;50.264;11.918;2023-07-20T03:44:45;95330.84;;;17.34;79.89
40946;BME280;55635;50.264;11.918;2023-07-20T03:47:26;95338.53;;;17.42;79.57
40946;BME280;55635;50.264;11.918;2023-07-20T03:50:08;95340.06;;;17.38;79.62
40946;BME280;55635;50.264;11.918;2023-07-20T03:52:51;95345.88;;;17.35;79.92
40946;BME280;55635;50.264;11.918;2023-07-20T03:55:32;95329.91;;;17.17;80.22
40946;BME280;55635;50.264;11.918;2023-07-20T03:58:14;95337.84;;;17.35;79.90
40946;BME280;55635;50.264;11.918;2023-07-20T04:00:55;95345.16;;;17.28;80.14
40946;BME280;55635;50.264;11.918;2023-07-20T04:03:36;95341.91;;;17.38;79.86
40946;BME280;55635;50.264;11.918;2023-07-20T04:06:17;95327.09;;;17.47;78.84
40946;BME280;55635;50.264;11.918;2023-07-20T04:08:58;95339.56;;;17.53;79.18
40946;BME280;55635;50.264;11.918;2023-07-20T04:11:39;95344.03;;;17.59;79.07
40946;BME280;55635;50.264;11.918;2023-07-20T04:14:21;95343.56;;;17.62;79.41
40946;BME280;55635;50.264;11.918;2023-07-20T04:17:02;95347.75;;;17.70;80.17
40946;BME280;55635;50.264;11.918;2023-07-20T04:19:43;95352.53;;;17.79;79.28
40946;BME280;55635;50.264;11.918;2023-07-20T04:22:23;95348.28;;;17.83;79.82
40946;BME280;55635;50.264;11.918;2023-07-20T04:25:05;95354.91;;;17.92;80.22
40946;BME280;55635;50.264;11.918;2023-07-20T04:27:47;95348.25;;;17.95;80.63
40946;BME280;55635;50.264;11.918;2023-07-20T04:30:28;95355.59;;;18.00;81.58
40946;BME280;55635;50.264;11.918;2023-07-20T04:33:09;95350.69;;;18.08;82.30
40946;BME280;55635;50.264;11.918;2023-07-20T04:35:53;95353.78;;;18.28;81.73
40946;BME280;55635;50.264;11.918;2023-07-20T04:38:47;95333.78;;;18.36;80.74
40946;BME280;55635;50.264;11.918;2023-07-20T04:41:32;95343.81;;;18.40;80.48
40946;BME280;55635;50.264;11.918;2023-07-20T04:44:14;95343.78;;;18.52;81.41
40946;BME280;55635;50.264;11.918;2023-07-20T04:46:54;95349.50;;;18.72;80.78
40946;BME280;55635;50.264;11.918;2023-07-20T04:49:35;95345.44;;;18.70;81.66
40946;BME280;55635;50.264;11.918;2023-07-20T04:52:16;95352.81;;;18.63;80.81
40946;BME280;55635;50.264;11.918;2023-07-20T04:54:57;95360.09;;;18.79;80.34
40946;BME280;55635;50.264;11.918;2023-07-20T04:57:38;95349.66;;;18.66;80.77
40946;BME280;55635;50.264;11.918;2023-07-20T05:00:20;95351.91;;;18.57;80.79
40946;BME280;55635;50.264;11.918;2023-07-20T05:03:02;95360.53;;;18.59;81.72
40946;BME280;55635;50.264;11.918;2023-07-20T05:05:47;95340.06;;;18.70;81.01
40946;BME280;55635;50.264;11.918;2023-07-20T05:08:29;95364.84;;;18.88;79.95
40946;BME280;55635;50.264;11.918;2023-07-20T05:11:11;95363.03;;;18.77;80.69
40946;BME280;55635;50.264;11.918;2023-07-20T05:13:53;95368.78;;;18.69;80.64
40946;BME280;55635;50.264;11.918;2023-07-20T05:16:34;95360.03;;;18.90;79.82
40946;BME280;55635;50.264;11.918;2023-07-20T05:19:18;95357.59;;;19.06;80.06
40946;BME280;55635;50.264;11.918;2023-07-20T05:21:59;95359.63;;;19.32;78.41
40946;BME280;55635;50.264;11.918;2023-07-20T05:24:40;95346.44;;;18.80;78.93
40946;BME280;55635;50.264;11.918;2023-07-20T05:27:21;95362.22;;;19.27;79.25
40946;BME280;55635;50.264;11.918;2023-07-20T05:30:04;95363.38;;;19.31;77.33
40946;BME280;55635;50.264;11.918;2023-07-20T05:32:45;95363.84;;;19.61;77.33
40946;BME280;55635;50.264;11.918;2023-07-20T05:35:31;95370.66;;;19.85;78.04
40946;BME280;55635;50.264;11.918;2023-07-20T05:38:12;95364.69;;;19.62;76.41
40946;BME280;55635;50.264;11.918;2023-07-20T05:40:59;95357.69;;;19.82;75.52
40946;BME280;55635;50.264;11.918;2023-07-20T05:43:42;95361.66;;;19.75;74.52
40946;BME280;55635;50.264;11.918;2023-07-20T05:46:24;95351.56;;;19.65;73.99
40946;BME280;55635;50.264;11.918;2023-07-20T05:49:05;95354.25;;;19.65;73.67
40946;BME280;55635;50.264;11.918;2023-07-20T05:51:46;95371.41;;;19.81;72.86
40946;BME280;55635;50.264;11.918;2023-07-20T05:54:27;95375.88;;;20.14;73.29
40946;BME280;55635;50.264;11.918;2023-07-20T05:57:10;95369.91;;;19.90;72.54
40946;BME280;55635;50.264;11.918;2023-07-20T05:59:51;95366.16;;;20.13;71.43
40946;BME280;55635;50.264;11.918;2023-07-20T06:02:32;95368.56;;;20.31;70.95
40946;BME280;55635;50.264;11.918;2023-07-20T06:05:14;95373.19;;;20.57;71.47
40946;BME280;55635;50.264;11.918;2023-07-20T06:07:55;95362.78;;;20.44;69.63
40946;BME280;55635;50.264;11.918;2023-07-20T06:10:36;95367.41;;;20.70;68.47
40946;BME280;55635;50.264;11.918;2023-07-20T06:13:17;95356.03;;;20.95;67.09
40946;BME280;55635;50.264;11.918;2023-07-20T06:15:58;95368.47;;;21.01;69.58
40946;BME280;55635;50.264;11.918;2023-07-20T06:18:39;95357.53;;;20.54;67.72
40946;BME280;55635;50.264;11.918;2023-07-20T06:21:19;95362.72;;;20.87;68.03
40946;BME280;55635;50.264;11.918;2023-07-20T06:24:00;95346.88;;;20.96;66.88
40946;BME280;55635;50.264;11.918;2023-07-20T06:26:41;95350.53;;;20.58;67.51
40946;BME280;55635;50.264;11.918;2023-07-20T06:29:22;95358.34;;;20.54;66.71
40946;BME280;55635;50.264;11.918;2023-07-20T06:32:04;95363.31;;;20.68;66.76
40946;BME280;55635;50.264;11.918;2023-07-20T06:34:45;95353.03;;;21.55;67.97
40946;BME280;55635;50.264;11.918;2023-07-20T06:37:26;95331.63;;;21.80;64.63
40946;BME280;55635;50.264;11.918;2023-07-20T06:40:08;95352.19;;;22.53;61.58
40946;BME280;55635;50.264;11.918;2023-07-20T06:42:52;95348.94;;;22.46;59.86
40946;BME280;55635;50.264;11.918;2023-07-20T06:45:32;95352.59;;;23.53;59.21
40946;BME280;55635;50.264;11.918;2023-07-20T06:48:14;95347.13;;;23.93;56.56
40946;BME280;55635;50.264;11.918;2023-07-20T06:50:55;95337.88;;;24.14;55.92
40946;BME280;55635;50.264;11.918;2023-07-20T06:53:36;95348.88;;;24.43;55.01
40946;BME280;55635;50.264;11.918;2023-07-20T06:56:16;95352.84;;;24.61;53.54
40946;BME280;55635;50.264;11.918;2023-07-20T06:58:57;95350.69;;;25.07;52.75
40946;BME280;55635;50.264;11.918;2023-07-20T07:01:39;95353.31;;;25.56;51.18
40946;BME280;55635;50.264;11.918;2023-07-20T07:04:20;95346.19;;;26.12;49.46
40946;BME280;55635;50.264;11.918;2023-07-20T07:07:01;95344.97;;;25.99;49.94
40946;BME280;55635;50.264;11.918;2023-07-20T07:10:03;95342.91;;;25.91;48.75
40946;BME280;55635;50.264;11.918;2023-07-20T07:12:46;95351.69;;;25.55;49.84
40946;BME280;55635;50.264;11.918;2023-07-20T07:15:27;95351.78;;;25.39;49.66
40946;BME280;55635;50.264;11.918;2023-07-20T07:18:08;95350.47;;;25.71;49.36
40946;BME280;55635;50.264;11.918;2023-07-20T07:20:53;95349.25;;;25.82;49.40
40946;BME280;55635;50.264;11.918;2023-07-20T07:23:34;95338.41;;;25.53;49.94
40946;BME280;55635;50.264;11.918;2023-07-20T07:26:15;95356.94;;;24.58;50.80
40946;BME280;55635;50.264;11.918;2023-07-20T07:28:55;95360.00;;;24.31;51.09
40946;BME280;55635;50.264;11.918;2023-07-20T07:31:36;95362.38;;;25.02;49.95
40946;BME280;55635;50.264;11.918;2023-07-20T07:34:19;95359.25;;;25.58;49.77
40946;BME280;55635;50.264;11.918;2023-07-20T07:36:59;95351.97;;;25.82;48.49
40946;BME280;55635;50.264;11.918;2023-07-20T07:39:40;95358.19;;;26.11;47.03
40946;BME280;55635;50.264;11.918;2023-07-20T07:42:24;95361.59;;;26.45;46.27
40946;BME280;55635;50.264;11.918;2023-07-20T07:45:06;95363.56;;;27.06;46.09
40946;BME280;55635;50.264;11.918;2023-07-20T07:47:47;95365.47;;;27.06;44.55
40946;BME280;55635;50.264;11.918;2023-07-20T07:50:28;95351.56;;;27.90;42.54
40946;BME280;55635;50.264;11.918;2023-07-20T07:53:09;95363.13;;;27.69;42.27
40946;BME280;55635;50.264;11.918;2023-07-20T07:55:50;95365.75;;;28.06;41.64
40946;BME280;55635;50.264;11.918;2023-07-20T07:58:31;95368.19;;;28.21;42.18
40946;BME280;55635;50.264;11.918;2023-07-20T08:01:12;95368.38;;;27.28;43.20
40946;BME280;55635;50.264;11.918;2023-07-20T08:03:53;95375.31;;;26.83;42.69
40946;BME280;55635;50.264;11.918;2023-07-20T08:06:34;95372.84;;;27.37;44.39
40946;BME280;55635;50.264;11.918;2023-07-20T08:09:15;95338.97;;;27.62;42.54
40946;BME280;55635;50.264;11.918;2023-07-20T08:11:55;95350.66;;;27.95;42.14
40946;BME280;55635;50.264;11.918;2023-07-20T08:14:36;95370.91;;;26.87;42.06
40946;BME280;55635;50.264;11.918;2023-07-20T08:17:17;95351.72;;;26.07;44.42
40946;BME280;55635;50.264;11.918;2023-07-20T08:19:58;95359.38;;;26.29;43.62
40946;BME280;55635;50.264;11.918;2023-07-20T08:22:39;95358.09;;;26.21;43.06
40946;BME280;55635;50.264;11.918;2023-07-20T08:25:21;95367.59;;;25.95;43.45
40946;BME280;55635;50.264;11.918;2023-07-20T08:28:02;95362.81;;;25.87;44.08
40946;BME280;55635;50.264;11.918;2023-07-20T08:30:47;95354.97;;;25.52;44.57
40946;BME280;55635;50.264;11.918;2023-07-20T08:33:29;95349.53;;;25.52;44.30
40946;BME280;55635;50.264;11.918;2023-07-20T08:36:14;95359.94;;;25.73;44.60
40946;BME280;55635;50.264;11.918;2023-07-20T08:38:54;95363.50;;;25.35;44.36
40946;BME280;55635;50.264;11.918;2023-07-20T08:41:36;95361.00;;;25.38;43.81
40946;BME280;55635;50.264;11.918;2023-07-20T08:44:17;95360.53;;;25.94;42.20
40946;BME280;55635;50.264;11.918;2023-07-20T08:46:59;95361.75;;;25.83;43.37
40946;BME280;55635;50.264;11.918;2023-07-20T08:49:41;95358.16;;;26.16;43.18
40946;BME280;55635;50.264;11.918;2023-07-20T08:52:22;95370.56;;;25.70;44.89
40946;BME280;55635;50.264;11.918;2023-07-20T08:55:03;95368.72;;;26.65;43.24
40946;BME280;55635;50.264;11.918;2023-07-20T08:57:45;95351.94;;;26.11;40.24
40946;BME280;55635;50.264;11.918;2023-07-20T09:00:27;95356.69;;;25.37;41.50
40946;BME280;55635;50.264;11.918;2023-07-20T09:03:11;95351.69;;;25.55;42.87
40946;BME280;55635;50.264;11.918;2023-07-20T09:05:52;95369.94;;;25.49;42.26
40946;BME280;55635;50.264;11.918;2023-07-20T09:08:33;95372.47;;;25.98;42.51
40946;BME280;55635;50.264;11.918;2023-07-20T09:11:14;95352.63;;;25.97;41.04
40946;BME280;55635;50.264;11.918;2023-07-20T09:14:06;95378.47;;;26.90;42.29
40946;BME280;55635;50.264;11.918;2023-07-20T09:19:31;95367.66;;;26.85;39.25
40946;BME280;55635;50.264;11.918;2023-07-20T09:22:14;95359.13;;;25.73;44.62
40946;BME280;55635;50.264;11.918;2023-07-20T09:24:55;95367.63;;;26.66;43.54
40946;BME280;55635;50.264;11.918;2023-07-20T09:27:37;95369.94;;;26.54;43.10
40946;BME280;55635;50.264;11.918;2023-07-20T09:30:19;95367.78;;;25.75;41.54
40946;BME280;55635;50.264;11.918;2023-07-20T09:33:00;95373.84;;;25.67;40.96
40946;BME280;55635;50.264;11.918;2023-07-20T09:35:43;95378.88;;;25.44;40.99
40946;BME280;55635;50.264;11.918;2023-07-20T09:38:29;95372.88;;;24.70;41.80
40946;BME280;55635;50.264;11.918;2023-07-20T09:41:14;95379.13;;;25.53;42.25
40946;BME280;55635;50.264;11.918;2023-07-20T09:44:01;95372.63;;;26.78;40.18
40946;BME280;55635;50.264;11.918;2023-07-20T09:46:48;95356.94;;;26.27;41.84
40946;BME280;55635;50.264;11.918;2023-07-20T09:49:29;95357.78;;;26.89;38.90
40946;BME280;55635;50.264;11.918;2023-07-20T09:52:10;95371.16;;;26.43;40.20
40946;BME280;55635;50.264;11.918;2023-07-20T09:54:52;95364.50;;;26.30;40.02
40946;BME280;55635;50.264;11.918;2023-07-20T09:57:34;95365.75;;;26.62;40.00
40946;BME280;55635;50.264;11.918;2023-07-20T10:00:16;95374.47;;;26.16;39.09
40946;BME280;55635;50.264;11.918;2023-07-20T10:02:58;95365.53;;;26.11;40.58
40946;BME280;55635;50.264;11.918;2023-07-20T10:05:46;95368.19;;;25.92;39.23
40946;BME280;55635;50.264;11.918;2023-07-20T10:08:30;95362.50;;;26.41;40.29
40946;BME280;55635;50.264;11.918;2023-07-20T10:11:12;95361.63;;;27.44;40.67
40946;BME280;55635;50.264;11.918;2023-07-20T10:13:58;95358.84;;;26.50;39.85
40946;BME280;55635;50.264;11.918;2023-07-20T10:16:45;95356.88;;;27.49;37.91
40946;BME280;55635;50.264;11.918;2023-07-20T10:22:26;95349.69;;;28.45;37.45
40946;BME280;55635;50.264;11.918;2023-07-20T10:25:10;95354.25;;;26.46;37.60
40946;BME280;55635;50.264;11.918;2023-07-20T10:27:51;95314.81;;;26.67;37.52
40946;BME280;55635;50.264;11.918;2023-07-20T10:30:36;95356.38;;;27.47;37.64
40946;BME280;55635;50.264;11.918;2023-07-20T10:33:18;95354.66;;;28.30;35.94
40946;BME280;55635;50.264;11.918;2023-07-20T10:36:03;95336.97;;;28.27;34.94
40946;BME280;55635;50.264;11.918;2023-07-20T10:41:39;95344.81;;;27.37;34.88
40946;BME280;55635;50.264;11.918;2023-07-20T10:44:21;95345.88;;;27.03;35.86
40946;BME280;55635;50.264;11.918;2023-07-20T10:47:08;95344.41;;;26.92;36.44
40946;BME280;55635;50.264;11.918;2023-07-20T10:49:59;95343.47;;;26.12;36.69
40946;BME280;55635;50.264;11.918;2023-07-20T10:52:41;95339.72;;;26.56;36.43
40946;BME280;55635;50.264;11.918;2023-07-20T10:55:22;95330.03;;;27.89;36.02
40946;BME280;55635;50.264;11.918;2023-07-20T10:58:12;95342.81;;;28.61;35.24
40946;BME280;55635;50.264;11.918;2023-07-20T11:01:03;95323.66;;;27.66;35.89
40946;BME280;55635;50.264;11.918;2023-07-20T11:03:49;95329.59;;;27.54;35.37
40946;BME280;55635;50.264;11.918;2023-07-20T11:06:33;95335.16;;;27.77;36.54
40946;BME280;55635;50.264;11.918;2023-07-20T11:09:15;95335.16;;;28.36;35.83
40946;BME280;55635;50.264;11.918;2023-07-20T11:12:14;95330.78;;;27.62;36.20
40946;BME280;55635;50.264;11.918;2023-07-20T11:14:57;95324.25;;;27.12;35.53
40946;BME280;55635;50.264;11.918;2023-07-20T11:17:38;95331.97;;;27.05;35.60
40946;BME280;55635;50.264;11.918;2023-07-20T11:20:19;95325.22;;;26.41;37.51
40946;BME280;55635;50.264;11.918;2023-07-20T11:23:01;95339.06;;;26.87;36.77
40946;BME280;55635;50.264;11.918;2023-07-20T11:25:43;95324.50;;;26.73;36.24
40946;BME280;55635;50.264;11.918;2023-07-20T11:28:24;95329.63;;;26.80;35.48
40946;BME280;55635;50.264;11.918;2023-07-20T11:31:05;95309.06;;;28.17;33.37
40946;BME280;55635;50.264;11.918;2023-07-20T11:33:46;95309.84;;;28.72;32.42
40946;BME280;55635;50.264;11.918;2023-07-20T11:36:27;95299.22;;;28.84;32.51
40946;BME280;55635;50.264;11.918;2023-07-20T11:39:16;95307.97;;;28.45;31.75
40946;BME280;55635;50.264;11.918;2023-07-20T11:41:59;95300.09;;;28.43;33.41
40946;BME280;55635;50.264;11.918;2023-07-20T11:44:40;95296.25;;;28.94;33.58
40946;BME280;55635;50.264;11.918;2023-07-20T11:47:22;95306.34;;;28.30;32.58
40946;BME280;55635;50.264;11.918;2023-07-20T11:50:04;95319.34;;;26.95;35.07
40946;BME280;55635;50.264;11.918;2023-07-20T11:52:45;95310.50;;;27.03;35.05
40946;BME280;55635;50.264;11.918;2023-07-20T11:55:26;95313.22;;;27.54;34.87
40946;BME280;55635;50.264;11.918;2023-07-20T11:58:09;95317.88;;;26.84;34.72
40946;BME280;55635;50.264;11.918;2023-07-20T12:00:50;95318.63;;;26.47;35.20
40946;BME280;55635;50.264;11.918;2023-07-20T12:03:31;95305.38;;;27.80;32.60
40946;BME280;55635;50.264;11.918;2023-07-20T12:06:13;95310.66;;;28.86;31.25
40946;BME280;55635;50.264;11.918;2023-07-20T12:08:58;95297.72;;;29.36;30.00
40946;BME280;55635;50.264;11.918;2023-07-20T12:11:44;95295.75;;;28.15;32.33
40946;BME280;55635;50.264;11.918;2023-07-20T12:14:28;95306.09;;;27.72;33.46
40946;BME280;55635;50.264;11.918;2023-07-20T12:17:09;95315.47;;;28.12;34.61
40946;BME280;55635;50.264;11.918;2023-07-20T12:19:57;95312.66;;;27.71;34.69
40946;BME280;55635;50.264;11.918;2023-07-20T12:22:43;95325.56;;;27.33;35.18
40946;BME280;55635;50.264;11.918;2023-07-20T12:25:42;95342.19;;;26.94;36.12
40946;BME280;55635;50.264;11.918;2023-07-20T12:28:23;95334.59;;;26.73;36.78
40946;BME280;55635;50.264;11.918;2023-07-20T12:31:05;95349.06;;;26.02;37.59
40946;BME280;55635;50.264;11.918;2023-07-20T12:33:47;95343.31;;;26.04;38.28
40946;BME280;55635;50.264;11.918;2023-07-20T12:36:27;95336.81;;;25.42;38.40
40946;BME280;55635;50.264;11.918;2023-07-20T12:39:08;95342.25;;;25.42;38.43
40946;BME280;55635;50.264;11.918;2023-07-20T12:41:50;95340.75;;;25.88;37.49
40946;BME280;55635;50.264;11.918;2023-07-20T12:44:31;95333.19;;;26.09;36.78
40946;BME280;55635;50.264;11.918;2023-07-20T12:47:12;95335.56;;;25.92;36.24
40946;BME280;55635;50.264;11.918;2023-07-20T12:49:52;95338.47;;;26.01;36.44
40946;BME280;55635;50.264;11.918;2023-07-20T12:52:37;95336.34;;;26.21;35.16
40946;BME280;55635;50.264;11.918;2023-07-20T12:55:19;95322.63;;;25.84;35.27
40946;BME280;55635;50.264;11.918;2023-07-20T12:58:00;95342.53;;;26.27;35.64
40946;BME280;55635;50.264;11.918;2023-07-20T13:00:41;95346.50;;;26.77;35.84
40946;BME280;55635;50.264;11.918;2023-07-20T13:03:22;95342.31;;;26.66;35.37
40946;BME280;55635;50.264;11.918;2023-07-20T13:06:03;95334.41;;;27.07;35.17
40946;BME280;55635;50.264;11.918;2023-07-20T13:08:44;95330.41;;;27.69;34.01
40946;BME280;55635;50.264;11.918;2023-07-20T13:11:25;95334.38;;;27.25;35.53
40946;BME280;55635;50.264;11.918;2023-07-20T13:14:06;95324.53;;;27.62;34.46
40946;BME280;55635;50.264;11.918;2023-07-20T13:16:47;95332.84;;;27.19;36.09
40946;BME280;55635;50.264;11.918;2023-07-20T13:19:27;95337.91;;;27.44;34.43
40946;BME280;55635;50.264;11.918;2023-07-20T13:22:08;95327.34;;;29.20;32.93
40946;BME280;55635;50.264;11.918;2023-07-20T13:24:50;95327.25;;;28.48;33.31
40946;BME280;55635;50.264;11.918;2023-07-20T13:27:31;95327.75;;;28.50;33.05
40946;BME280;55635;50.264;11.918;2023-07-20T13:30:12;95322.41;;;28.32;32.94
40946;BME280;55635;50.264;11.918;2023-07-20T13:32:57;95319.50;;;28.28;33.01
40946;BME280;55635;50.264;11.918;2023-07-20T13:35:38;95319.94;;;27.89;34.35
40946;BME280;55635;50.264;11.918;2023-07-20T13:38:19;95337.78;;;27.17;34.27
40946;BME280;55635;50.264;11.918;2023-07-20T13:40:59;95349.56;;;26.04;40.74
40946;BME280;55635;50.264;11.918;2023-07-20T13:43:40;95344.63;;;26.06;42.15
40946;BME280;55635;50.264;11.918;2023-07-20T13:46:21;95354.13;;;25.17;45.19
40946;BME280;55635;50.264;11.918;2023-07-20T13:49:02;95348.69;;;25.22;45.30
40946;BME280;55635;50.264;11.918;2023-07-20T13:51:43;95369.84;;;25.20;45.49
40946;BME280;55635;50.264;11.918;2023-07-20T13:54:27;95365.28;;;24.62;46.62
40946;BME280;55635;50.264;11.918;2023-07-20T13:57:08;95369.84;;;24.71;46.93
40946;BME280;55635;50.264;11.918;2023-07-20T13:59:49;95364.25;;;24.58;47.14
40946;BME280;55635;50.264;11.918;2023-07-20T14:02:30;95376.44;;;25.09;46.87
40946;BME280;55635;50.264;11.918;2023-07-20T14:05:10;95376.63;;;24.74;47.16
40946;BME280;55635;50.264;11.918;2023-07-20T14:07:51;95370.41;;;25.22;47.32
40946;BME280;55635;50.264;11.918;2023-07-20T14:10:32;95373.88;;;25.28;46.14
40946;BME280;55635;50.264;11.918;2023-07-20T14:13:13;95371.31;;;25.41;46.28
40946;BME280;55635;50.264;11.918;2023-07-20T14:15:54;95364.41;;;25.88;45.23
40946;BME280;55635;50.264;11.918;2023-07-20T14:18:35;95356.06;;;26.08;44.20
40946;BME280;55635;50.264;11.918;2023-07-20T14:21:21;95354.34;;;25.88;44.08
40946;BME280;55635;50.264;11.918;2023-07-20T14:24:03;95358.38;;;26.43;43.25
40946;BME280;55635;50.264;11.918;2023-07-20T14:26:44;95341.78;;;26.21;41.66
40946;BME280;55635;50.264;11.918;2023-07-20T14:29:25;95347.81;;;26.84;41.59